createdAt,value
2018-12-19T00:02:10.024Z,75.13
2018-12-19T00:04:38.439Z,81.50
2018-12-19T00:07:06.900Z,84.23
2018-12-19T00:09:35.507Z,68.93
2018-12-19T00:12:04.083Z,83.37
2018-12-19T00:14:32.513Z,60.87
2018-12-19T00:17:00.983Z,59.90
2018-12-19T00:19:29.403Z,62.47
2018-12-19T00:21:57.804Z,59.60
2018-12-19T00:24:26.293Z,68.40
2018-12-19T00:26:54.696Z,63.80
2018-12-19T00:29:23.130Z,52.33
2018-12-19T00:31:51.607Z,57.83
2018-12-19T00:34:20.032Z,61.33
2018-12-19T00:36:48.467Z,74.93
2018-12-19T00:39:16.952Z,68.40
2018-12-19T00:41:45.397Z,78.63
2018-12-19T00:44:13.838Z,59.93
2018-12-19T00:46:42.486Z,65.23
2018-12-19T00:49:11.102Z,63.73
2018-12-19T00:51:39.638Z,66.17
2018-12-19T00:54:08.172Z,70.10
2018-12-19T00:56:36.639Z,58.33
2018-12-19T00:59:05.059Z,62.97
2018-12-19T01:01:33.523Z,62.53
2018-12-19T01:04:02.015Z,62.70
2018-12-19T01:06:30.480Z,60.33
2018-12-19T01:08:59.106Z,60.77
2018-12-19T01:11:27.689Z,61.80
2018-12-19T01:13:56.216Z,62.43
2018-12-19T01:16:24.684Z,68.93
2018-12-19T01:18:53.130Z,79.87
2018-12-19T01:21:21.545Z,68.93
2018-12-19T01:23:50.014Z,79.60
2018-12-19T01:26:18.441Z,65.70
2018-12-19T01:28:46.846Z,59.90
2018-12-19T01:31:15.296Z,59.73
2018-12-19T01:33:43.702Z,78.77
2018-12-19T01:36:12.162Z,70.73
2018-12-19T01:38:40.658Z,72.33
2018-12-19T01:41:09.196Z,80.93
2018-12-19T01:43:37.645Z,68.30
2018-12-19T01:46:06.090Z,79.03
2018-12-19T01:48:34.530Z,71.53
2018-12-19T01:51:02.927Z,93.83
2018-12-19T01:53:31.399Z,81.40
2018-12-19T01:55:59.842Z,76.10
2018-12-19T01:58:28.280Z,110.07
2018-12-19T02:00:56.746Z,76.83
2018-12-19T02:03:25.176Z,75.63
2018-12-19T02:05:53.769Z,81.60
2018-12-19T02:08:22.226Z,93.87
2018-12-19T02:10:50.633Z,84.40
2018-12-19T02:13:19.063Z,87.67
2018-12-19T02:15:47.554Z,99.23
2018-12-19T02:18:15.974Z,89.83
2018-12-19T02:20:44.439Z,81.47
2018-12-19T02:23:12.951Z,78.40
2018-12-19T02:25:41.393Z,107.30
2018-12-19T02:28:09.926Z,107.87
2018-12-19T02:30:38.403Z,107.10
2018-12-19T02:33:06.846Z,87.97
2018-12-19T02:35:35.318Z,75.83
2018-12-19T02:38:03.774Z,79.30
2018-12-19T02:40:32.198Z,99.57
2018-12-19T02:43:00.648Z,115.03
2018-12-19T02:45:29.145Z,91.27
2018-12-19T02:47:57.600Z,112.50
2018-12-19T02:50:26.012Z,109.77
2018-12-19T02:52:54.521Z,110.53
2018-12-19T02:55:22.950Z,99.03
2018-12-19T02:57:51.457Z,108.40
2018-12-19T03:00:20.028Z,91.27
2018-12-19T03:02:48.565Z,102.53
2018-12-19T03:05:17.020Z,82.90
2018-12-19T03:07:45.486Z,86.43
2018-12-19T03:10:13.923Z,141.13
2018-12-19T03:12:42.370Z,85.37
2018-12-19T03:15:11.019Z,75.20
2018-12-19T03:17:39.448Z,119.43
2018-12-19T03:20:07.985Z,108.50
2018-12-19T03:22:36.434Z,84.57
2018-12-19T03:25:05.176Z,86.60
2018-12-19T03:27:33.599Z,85.43
2018-12-19T03:30:02.286Z,89.83
2018-12-19T03:32:30.946Z,98.70
2018-12-19T03:34:59.353Z,91.30
2018-12-19T03:37:27.956Z,88.70
2018-12-19T03:39:56.520Z,77.63
2018-12-19T03:42:24.986Z,70.57
2018-12-19T03:44:53.452Z,71.37
2018-12-19T03:47:21.915Z,64.83
2018-12-19T03:49:50.756Z,62.00
2018-12-19T03:52:19.243Z,64.50
2018-12-19T03:54:47.688Z,58.37
2018-12-19T03:57:16.363Z,52.43
2018-12-19T03:59:44.895Z,59.43
2018-12-19T04:02:13.313Z,70.27
2018-12-19T04:04:41.725Z,71.47
2018-12-19T04:07:10.203Z,78.30
2018-12-19T04:09:38.653Z,68.30
2018-12-19T04:12:07.074Z,73.13
2018-12-19T04:14:35.565Z,73.70
2018-12-19T04:17:04.022Z,79.67
2018-12-19T04:19:32.402Z,78.13
2018-12-19T04:22:00.909Z,77.57
2018-12-19T04:24:29.348Z,67.70
2018-12-19T04:26:57.781Z,84.07
2018-12-19T04:29:26.246Z,65.90
2018-12-19T04:31:54.690Z,64.47
2018-12-19T04:34:23.112Z,67.97
2018-12-19T04:36:51.663Z,67.10
2018-12-19T04:39:20.091Z,70.37
2018-12-19T04:41:48.526Z,78.70
2018-12-19T04:44:17.123Z,61.73
2018-12-19T04:46:45.575Z,58.10
2018-12-19T04:49:14.003Z,62.73
2018-12-19T04:51:42.581Z,63.73
2018-12-19T04:54:11.005Z,63.87
2018-12-19T04:56:39.588Z,79.43
2018-12-19T04:59:08.072Z,58.43
2018-12-19T05:01:36.463Z,54.13
2018-12-19T05:04:04.933Z,70.80
2018-12-19T05:06:33.416Z,67.53
2018-12-19T05:09:01.869Z,73.20
2018-12-19T05:11:30.520Z,64.33
2018-12-19T05:13:59.139Z,57.90
2018-12-19T05:16:27.607Z,58.37
2018-12-19T05:18:56.159Z,73.07
2018-12-19T05:21:24.624Z,99.50
2018-12-19T05:23:53.056Z,91.63
2018-12-19T05:26:21.494Z,70.13
2018-12-19T05:28:49.955Z,72.10
2018-12-19T05:31:18.366Z,80.50
2018-12-19T05:33:46.786Z,65.07
2018-12-19T05:36:15.287Z,103.63
2018-12-19T05:38:43.844Z,73.67
2018-12-19T05:41:12.269Z,67.57
2018-12-19T05:43:40.758Z,77.47
2018-12-19T05:46:09.198Z,72.13
2018-12-19T05:48:37.618Z,63.00
2018-12-19T05:51:06.206Z,60.07
2018-12-19T05:53:34.671Z,64.70
2018-12-19T05:56:03.091Z,77.40
2018-12-19T05:58:31.575Z,54.40
2018-12-19T06:01:00.126Z,63.83
2018-12-19T06:03:28.560Z,62.10
2018-12-19T06:05:57.103Z,65.80
2018-12-19T06:08:25.649Z,75.03
2018-12-19T06:10:54.098Z,63.10
2018-12-19T06:13:22.703Z,59.83
2018-12-19T06:15:51.183Z,84.80
2018-12-19T06:18:19.704Z,60.60
2018-12-19T06:20:48.209Z,75.83
2018-12-19T06:23:16.665Z,85.90
2018-12-19T06:25:45.089Z,72.07
2018-12-19T06:28:13.591Z,70.43
2018-12-19T06:30:42.074Z,77.77
2018-12-19T06:33:10.515Z,59.90
2018-12-19T06:35:38.995Z,60.77
2018-12-19T06:38:07.442Z,62.27
2018-12-19T06:40:35.840Z,67.90
2018-12-19T06:43:04.746Z,72.60
2018-12-19T06:45:33.185Z,88.13
2018-12-19T06:48:01.777Z,96.07
2018-12-19T06:50:30.371Z,98.23
2018-12-19T06:52:58.793Z,91.97
2018-12-19T06:55:27.279Z,88.73
2018-12-19T06:57:55.772Z,95.43
2018-12-19T07:00:24.183Z,89.67
2018-12-19T07:02:52.597Z,86.70
2018-12-19T07:05:21.082Z,100.73
2018-12-19T07:07:49.612Z,102.00
2018-12-19T07:10:18.144Z,92.57
2018-12-19T07:12:46.623Z,100.20
2018-12-19T07:15:15.079Z,83.77
2018-12-19T07:17:44.202Z,85.73
2018-12-19T07:20:12.775Z,83.20
2018-12-19T07:22:41.207Z,84.00
2018-12-19T07:25:09.628Z,86.73
2018-12-19T07:27:38.118Z,86.73
2018-12-19T07:30:07.615Z,81.67
2018-12-19T07:32:36.036Z,94.93
2018-12-19T07:35:04.615Z,94.53
2018-12-19T07:37:33.042Z,69.13
2018-12-19T07:40:01.524Z,73.30
2018-12-19T07:42:30.051Z,70.97
2018-12-19T07:44:58.491Z,73.10
2018-12-19T07:47:27.038Z,83.50
2018-12-19T07:49:55.594Z,92.53
2018-12-19T07:52:24.050Z,83.27
2018-12-19T07:54:52.495Z,77.20
2018-12-19T07:57:20.959Z,87.37
2018-12-19T07:59:49.419Z,74.43
2018-12-19T08:02:17.820Z,75.93
2018-12-19T08:04:46.680Z,69.33
2018-12-19T08:07:15.255Z,67.97
2018-12-19T08:09:43.715Z,69.80
2018-12-19T08:12:12.220Z,71.37
2018-12-19T08:14:40.647Z,70.20
2018-12-19T08:17:09.110Z,65.20
2018-12-19T08:19:37.603Z,75.37
2018-12-19T08:22:06.020Z,86.50
2018-12-19T08:24:34.455Z,80.87
2018-12-19T08:27:02.946Z,136.73
2018-12-19T08:29:31.404Z,69.90
2018-12-19T08:32:00.002Z,67.07
2018-12-19T08:34:28.479Z,67.07
2018-12-19T08:36:57.072Z,71.07
2018-12-19T08:39:26.120Z,63.20
2018-12-19T08:41:55.160Z,102.90
2018-12-19T08:44:24.421Z,92.57
2018-12-19T08:46:53.227Z,87.40
2018-12-19T08:49:21.682Z,71.73
2018-12-19T08:51:50.136Z,75.93
2018-12-19T08:54:18.562Z,83.33
2018-12-19T08:56:47.058Z,87.70
2018-12-19T08:59:15.475Z,77.30
2018-12-19T09:01:43.910Z,70.17
2018-12-19T09:04:12.380Z,83.60
2018-12-19T09:06:40.878Z,80.40
2018-12-19T09:09:09.345Z,67.97
2018-12-19T09:11:37.844Z,63.73
2018-12-19T09:14:06.295Z,67.57
2018-12-19T09:16:34.972Z,73.93
2018-12-19T09:19:03.426Z,64.70
2018-12-19T09:21:31.871Z,72.00
2018-12-19T09:24:00.290Z,64.13
2018-12-19T09:26:29.310Z,332.07
2018-12-19T09:28:57.761Z,159.50
2018-12-19T09:31:26.185Z,61.10
2018-12-19T09:33:54.690Z,56.60
2018-12-19T09:36:23.103Z,61.00
2018-12-19T09:38:51.550Z,60.10
2018-12-19T09:41:20.010Z,63.53
2018-12-19T09:43:48.447Z,58.97
2018-12-19T09:46:16.899Z,62.40
2018-12-19T09:48:45.406Z,60.77
2018-12-19T09:51:14.714Z,61.57
2018-12-19T09:53:43.152Z,62.70
2018-12-19T09:56:11.628Z,66.57
2018-12-19T09:58:40.197Z,67.77
2018-12-19T10:01:08.638Z,62.90
2018-12-19T10:03:37.134Z,72.73
2018-12-19T10:06:05.559Z,69.77
2018-12-19T10:08:34.007Z,55.47
2018-12-19T10:11:02.472Z,66.87
2018-12-19T10:13:30.876Z,60.83
2018-12-19T10:15:59.317Z,68.57
2018-12-19T10:18:27.782Z,92.23
2018-12-19T10:20:56.167Z,87.70
2018-12-19T10:23:24.728Z,72.53
2018-12-19T10:26:13.825Z,79.37
2018-12-19T10:28:42.255Z,88.20
2018-12-19T10:31:10.671Z,71.03
2018-12-19T10:33:39.168Z,74.50
2018-12-19T10:36:07.596Z,68.70
2018-12-19T10:38:36.061Z,66.43
2018-12-19T10:41:04.535Z,63.97
2018-12-19T10:43:32.974Z,73.63
2018-12-19T10:46:01.404Z,68.13
2018-12-19T10:48:33.027Z,76.27
2018-12-19T10:51:01.608Z,68.90
2018-12-19T10:53:30.054Z,74.57
2018-12-19T10:55:58.542Z,69.93
2018-12-19T10:58:26.963Z,77.23
2018-12-19T11:01:00.507Z,71.93
2018-12-19T11:03:28.927Z,66.67
2018-12-19T11:05:57.400Z,84.43
2018-12-19T11:08:26.100Z,74.17
2018-12-19T11:10:54.806Z,73.27
2018-12-19T11:13:23.255Z,77.00
2018-12-19T11:15:51.762Z,66.57
2018-12-19T11:18:20.287Z,68.93
2018-12-19T11:20:48.723Z,80.27
2018-12-19T11:23:17.211Z,75.40
2018-12-19T11:25:45.667Z,65.10
2018-12-19T11:28:14.103Z,69.63
2018-12-19T11:30:42.570Z,74.93
2018-12-19T11:33:11.037Z,73.00
2018-12-19T11:35:39.459Z,68.43
2018-12-19T11:38:07.945Z,69.87
2018-12-19T11:40:36.442Z,71.90
2018-12-19T11:43:04.887Z,60.63
2018-12-19T11:45:33.391Z,62.10
2018-12-19T11:48:01.957Z,56.93
2018-12-19T11:50:30.421Z,71.20
2018-12-19T11:52:58.907Z,62.73
2018-12-19T11:55:27.392Z,60.60
2018-12-19T11:57:55.805Z,47.80
2018-12-19T12:00:24.362Z,51.73
2018-12-19T12:02:52.854Z,49.80
2018-12-19T12:05:21.260Z,49.27
2018-12-19T12:07:49.922Z,51.77
2018-12-19T12:10:18.537Z,53.77
2018-12-19T12:12:47.119Z,58.60
2018-12-19T12:15:15.637Z,53.13
2018-12-19T12:17:44.083Z,67.00
2018-12-19T12:20:12.491Z,65.80
2018-12-19T12:22:41.257Z,65.53
2018-12-19T12:25:10.197Z,61.80
2018-12-19T12:27:38.776Z,55.43
2018-12-19T12:30:07.480Z,60.77
2018-12-19T12:32:35.948Z,62.70
2018-12-19T12:35:05.419Z,57.00
2018-12-19T12:37:33.897Z,68.93
2018-12-19T12:40:02.335Z,62.03
2018-12-19T12:42:30.770Z,69.20
2018-12-19T12:44:59.388Z,66.17
2018-12-19T12:47:27.933Z,80.17
2018-12-19T12:49:56.349Z,69.30
2018-12-19T12:52:24.831Z,79.57
2018-12-19T12:54:53.387Z,68.20
2018-12-19T12:57:21.831Z,66.50
2018-12-19T12:59:50.307Z,74.10
2018-12-19T13:02:18.733Z,70.03
2018-12-19T13:04:47.164Z,64.53
2018-12-19T13:07:15.632Z,74.93
2018-12-19T13:09:44.063Z,75.03
2018-12-19T13:12:12.526Z,77.67
2018-12-19T13:14:41.398Z,75.20
2018-12-19T13:17:09.979Z,68.63
2018-12-19T13:19:38.419Z,61.23
2018-12-19T13:22:06.930Z,58.10
2018-12-19T13:24:35.369Z,57.20
2018-12-19T13:27:03.914Z,57.50
2018-12-19T13:29:32.676Z,56.27
2018-12-19T13:32:01.468Z,57.97
2018-12-19T13:34:30.011Z,68.07
2018-12-19T13:36:58.595Z,59.40
2018-12-19T13:39:27.003Z,65.77
2018-12-19T13:41:55.454Z,84.33
2018-12-19T13:44:23.891Z,70.77
2018-12-19T13:46:52.374Z,79.83
2018-12-19T13:49:20.775Z,89.73
2018-12-19T13:51:49.257Z,102.13
2018-12-19T13:54:17.684Z,81.93
2018-12-19T13:56:46.128Z,100.03
2018-12-19T13:59:14.627Z,74.63
2018-12-19T14:01:43.064Z,84.83
2018-12-19T14:04:11.477Z,84.87
2018-12-19T14:06:39.956Z,77.00
2018-12-19T14:09:08.343Z,73.30
2018-12-19T14:11:36.717Z,85.73
2018-12-19T14:14:05.204Z,76.40
2018-12-19T14:16:33.659Z,73.53
2018-12-19T14:19:02.054Z,69.47
2018-12-19T14:21:30.603Z,69.17
2018-12-19T14:23:59.027Z,87.80
2018-12-19T14:26:27.461Z,81.17
2018-12-19T14:28:55.950Z,111.00
2018-12-19T14:31:24.393Z,90.10
2018-12-19T14:33:52.807Z,82.37
2018-12-19T14:36:21.278Z,89.27
2018-12-19T14:38:49.769Z,81.10
2018-12-19T14:41:18.189Z,71.20
2018-12-19T14:43:46.688Z,71.50
2018-12-19T14:46:15.151Z,81.40
2018-12-19T14:48:43.567Z,100.20
2018-12-19T14:51:12.159Z,93.73
2018-12-19T14:53:40.620Z,99.50
2018-12-19T14:56:09.061Z,102.77
2018-12-19T14:58:37.564Z,137.80
2018-12-19T15:01:06.019Z,144.53
2018-12-19T15:03:34.475Z,94.10
2018-12-19T15:06:02.968Z,110.70
2018-12-19T15:08:31.401Z,114.10
2018-12-19T15:10:59.800Z,143.33
2018-12-19T15:13:28.283Z,111.53
2018-12-19T15:16:01.802Z,126.23
2018-12-19T15:18:30.494Z,118.27
2018-12-19T15:20:58.907Z,141.20
2018-12-19T15:23:27.360Z,191.53
2018-12-19T15:25:55.829Z,145.97
2018-12-19T15:28:24.284Z,144.00
2018-12-19T15:37:47.814Z,195.93
2018-12-19T15:40:16.261Z,139.97
2018-12-19T15:42:44.752Z,151.97
2018-12-19T15:45:13.378Z,198.60
2018-12-19T15:47:41.928Z,153.50
2018-12-19T15:50:10.499Z,158.20
2018-12-19T15:52:39.012Z,154.90
2018-12-19T15:55:07.678Z,177.13
2018-12-19T15:57:36.123Z,189.07
2018-12-19T16:00:05.635Z,178.40
2018-12-19T16:02:34.091Z,192.53
2018-12-19T16:05:02.571Z,222.73
2018-12-19T16:07:31.072Z,331.70
2018-12-19T16:09:59.543Z,288.73
2018-12-19T16:12:27.982Z,226.70
2018-12-19T16:14:56.464Z,448.20
2018-12-19T16:17:25.021Z,267.40
2018-12-19T16:19:53.489Z,206.57
2018-12-19T16:22:21.985Z,261.73
2018-12-19T16:24:50.542Z,297.10
2018-12-19T16:27:18.973Z,334.57
2018-12-19T16:29:47.467Z,451.83
2018-12-19T16:32:15.919Z,244.03
2018-12-19T16:34:44.483Z,272.00
2018-12-19T16:37:12.979Z,219.50
2018-12-19T16:39:41.478Z,293.33
2018-12-19T16:42:09.919Z,259.90
2018-12-19T16:44:38.417Z,238.47
2018-12-19T16:47:06.892Z,251.63
2018-12-19T16:49:35.326Z,379.00
2018-12-19T16:52:03.950Z,236.00
2018-12-19T16:54:32.374Z,231.90
2018-12-19T16:57:00.830Z,243.20
2018-12-19T16:59:29.341Z,214.37
2018-12-19T17:01:57.803Z,202.70
2018-12-19T17:04:26.237Z,254.80
2018-12-19T17:06:54.715Z,257.97
2018-12-19T17:09:23.314Z,294.27
2018-12-19T17:11:51.920Z,221.33
2018-12-19T17:14:20.447Z,201.53
2018-12-19T17:16:48.922Z,207.80
2018-12-19T17:19:17.436Z,204.63
2018-12-19T17:21:45.940Z,219.50
2018-12-19T17:24:14.599Z,210.97
2018-12-19T17:26:43.087Z,218.67
2018-12-19T17:29:11.571Z,150.27
2018-12-19T17:31:40.000Z,185.63
2018-12-19T17:34:08.457Z,244.20
2018-12-19T17:36:37.027Z,219.93
2018-12-19T17:39:06.623Z,253.90
2018-12-19T17:41:35.129Z,287.07
2018-12-19T17:44:03.657Z,254.77
2018-12-19T17:46:32.081Z,315.87
2018-12-19T17:49:00.581Z,196.03
2018-12-19T17:51:29.076Z,202.73
2018-12-19T17:53:57.456Z,211.77
2018-12-19T17:56:25.853Z,264.53
2018-12-19T17:58:54.310Z,189.97
2018-12-19T18:01:22.776Z,234.33
2018-12-19T18:03:51.263Z,267.97
2018-12-19T18:06:19.889Z,272.10
2018-12-19T18:08:48.307Z,233.70
2018-12-19T18:11:16.743Z,236.80
2018-12-19T18:13:45.357Z,235.13
2018-12-19T18:16:13.819Z,204.07
2018-12-19T18:18:42.267Z,218.97
2018-12-19T18:21:10.878Z,234.37
2018-12-19T18:23:39.300Z,297.73
2018-12-19T18:26:07.704Z,234.20
2018-12-19T18:28:36.139Z,208.73
2018-12-19T18:31:04.707Z,180.57
2018-12-19T18:33:33.180Z,168.13
2018-12-19T18:36:01.672Z,205.50
2018-12-19T18:38:30.092Z,194.87
2018-12-19T18:40:58.592Z,176.97
2018-12-19T18:43:27.073Z,220.83
2018-12-19T18:45:55.495Z,171.67
2018-12-19T18:48:24.135Z,231.63
2018-12-19T18:50:52.628Z,246.60
2018-12-19T18:53:21.071Z,210.83
2018-12-19T18:55:49.501Z,164.07
2018-12-19T18:58:17.980Z,211.67
2018-12-19T19:00:47.881Z,185.63
2018-12-19T19:03:16.425Z,209.10
2018-12-19T19:05:45.039Z,163.43
2018-12-19T19:08:13.761Z,196.17
2018-12-19T19:10:42.412Z,215.93
2018-12-19T19:13:10.930Z,196.67
2018-12-19T19:15:39.356Z,188.27
2018-12-19T19:18:07.768Z,166.77
2018-12-19T19:20:36.351Z,195.23
2018-12-19T19:23:04.740Z,177.17
2018-12-19T19:25:33.138Z,212.60
2018-12-19T19:28:01.675Z,215.20
2018-12-19T19:30:30.070Z,219.40
2018-12-19T19:32:58.656Z,194.10
2018-12-19T19:35:27.138Z,164.70
2018-12-19T19:37:55.552Z,157.90
2018-12-19T19:40:23.961Z,163.37
2018-12-19T19:42:52.425Z,172.27
2018-12-19T19:45:20.850Z,159.47
2018-12-19T19:47:49.253Z,190.67
2018-12-19T19:50:17.806Z,144.47
2018-12-19T19:52:46.213Z,153.13
2018-12-19T19:55:14.628Z,169.30
2018-12-19T19:57:43.104Z,146.23
2018-12-19T20:00:12.014Z,161.67
2018-12-19T20:02:40.562Z,102.87
2018-12-19T20:05:09.108Z,104.30
2018-12-19T20:07:37.510Z,97.20
2018-12-19T20:10:06.836Z,90.53
2018-12-19T20:12:35.467Z,84.03
2018-12-19T20:15:04.299Z,85.47
2018-12-19T20:17:32.814Z,84.57
2018-12-19T20:20:01.299Z,100.10
2018-12-19T20:22:29.675Z,77.93
2018-12-19T20:24:58.063Z,75.87
2018-12-19T20:27:26.524Z,84.50
2018-12-19T20:29:54.939Z,75.67
2018-12-19T20:32:23.315Z,80.83
2018-12-19T20:34:51.815Z,86.83
2018-12-19T20:37:20.218Z,74.83
2018-12-19T20:39:48.618Z,80.17
2018-12-19T20:42:17.043Z,89.07
2018-12-19T20:44:45.607Z,84.73
2018-12-19T20:47:14.026Z,68.77
2018-12-19T20:49:42.563Z,65.57
2018-12-19T20:52:10.991Z,64.60
2018-12-19T20:54:39.371Z,69.30
2018-12-19T20:57:07.796Z,71.87
2018-12-19T20:59:36.210Z,65.60
2018-12-19T21:02:04.733Z,52.47
2018-12-19T21:04:33.234Z,63.90
2018-12-19T21:07:01.641Z,52.17
2018-12-19T21:09:30.044Z,46.80
2018-12-19T21:11:58.557Z,49.40
2018-12-19T21:14:27.044Z,50.13
2018-12-19T21:17:00.747Z,49.80
2018-12-19T21:19:29.199Z,56.77
2018-12-19T21:21:57.650Z,40.93
2018-12-19T21:24:26.143Z,45.33
2018-12-19T21:26:54.746Z,45.13
2018-12-19T21:29:23.260Z,48.83
2018-12-19T21:31:51.735Z,40.80
2018-12-19T21:34:20.289Z,55.83
2018-12-19T21:36:48.687Z,52.23
2018-12-19T21:39:17.719Z,48.93
2018-12-19T21:41:46.212Z,59.53
2018-12-19T21:44:14.622Z,55.57
2018-12-19T21:46:43.103Z,53.50
2018-12-19T21:49:11.646Z,74.23
2018-12-19T21:51:40.200Z,58.53
2018-12-19T21:54:08.795Z,63.80
2018-12-19T21:56:37.236Z,56.33
2018-12-19T21:59:05.663Z,60.23
2018-12-19T22:01:34.243Z,62.10
2018-12-19T22:04:02.701Z,54.43
2018-12-19T22:06:31.251Z,57.70
2018-12-19T22:08:59.900Z,48.67
2018-12-19T22:11:28.416Z,48.30
2018-12-19T22:14:00.569Z,45.00
2018-12-19T22:16:32.707Z,45.50
2018-12-19T22:19:01.236Z,46.33
2018-12-19T22:21:29.834Z,48.70
2018-12-19T22:23:58.408Z,54.67
2018-12-19T22:26:26.888Z,49.13
2018-12-19T22:28:55.402Z,43.13
2018-12-19T22:31:23.897Z,43.27
2018-12-19T22:33:52.396Z,42.67
2018-12-19T22:36:51.378Z,40.33
2018-12-19T22:39:19.820Z,37.17
2018-12-19T22:41:48.353Z,34.87
2018-12-19T22:44:17.019Z,33.63
2018-12-19T22:46:45.502Z,36.30
2018-12-19T22:49:14.135Z,40.10
2018-12-19T22:51:42.725Z,36.23
2018-12-19T22:54:11.285Z,30.90
2018-12-19T22:56:39.835Z,33.27
2018-12-19T22:59:08.460Z,32.07
2018-12-19T23:03:45.573Z,30.90
2018-12-19T23:06:14.367Z,35.83
2018-12-19T23:08:43.068Z,39.00
2018-12-19T23:11:11.504Z,44.23
2018-12-19T23:13:40.142Z,47.20
2018-12-19T23:16:08.689Z,128.47
2018-12-19T23:18:37.876Z,114.23
2018-12-19T23:21:07.093Z,69.80
2018-12-19T23:23:35.571Z,83.70
2018-12-19T23:26:04.164Z,52.60
2018-12-19T23:28:32.643Z,53.20
2018-12-19T23:31:01.091Z,41.50
2018-12-19T23:33:29.510Z,45.17
2018-12-19T23:35:57.975Z,48.10
2018-12-19T23:38:26.402Z,50.97
2018-12-19T23:40:54.843Z,46.50
2018-12-19T23:43:23.332Z,44.40
2018-12-19T23:45:51.836Z,48.87
2018-12-19T23:48:20.353Z,48.87
2018-12-19T23:50:48.863Z,42.70
2018-12-19T23:53:17.327Z,39.23
2018-12-19T23:55:45.895Z,47.87
2018-12-19T23:58:14.560Z,40.23
